sensor_id;sensor_type;location;lat;lon;timestamp;temperature;humidity
12948;DHT22;6539;49.476;8.484;2022-12-18T00:01:31;-2.80;99.90
12948;DHT22;6539;49.476;8.484;2022-12-18T00:04:07;-2.70;99.90
12948;DHT22;6539;49.476;8.484;2022-12-18T00:09:06;-2.80;99.90
12948;DHT22;6539;49.476;8.484;2022-12-18T00:11:32;-3.10;99.90
12948;DHT22;6539;49.476;8.484;2022-12-18T00:14:00;-2.70;99.90
12948;DHT22;6539;49.476;8.484;2022-12-18T00:16:27;-2.90;99.90
12948;DHT22;6539;49.476;8.484;2022-12-18T00:18:56;-3.00;99.90
12948;DHT22;6539;49.476;8.484;2022-12-18T00:21:28;-2.70;99.90
12948;DHT22;6539;49.476;8.484;2022-12-18T00:23:54;-2.90;99.90
12948;DHT22;6539;49.476;8.484;2022-12-18T00:26:28;-3.00;99.90
12948;DHT22;6539;49.476;8.484;2022-12-18T00:29:02;-3.00;99.90
12948;DHT22;6539;49.476;8.484;2022-12-18T00:31:41;-2.90;99.90
12948;DHT22;6539;49.476;8.484;2022-12-18T00:34:11;-3.00;99.90
12948;DHT22;6539;49.476;8.484;2022-12-18T00:36:40;-3.10;99.90
12948;DHT22;6539;49.476;8.484;2022-12-18T00:39:10;-3.30;99.90
12948;DHT22;6539;49.476;8.484;2022-12-18T00:41:40;-3.30;99.90
12948;DHT22;6539;49.476;8.484;2022-12-18T00:46:51;-3.10;99.90
12948;DHT22;6539;49.476;8.484;2022-12-18T00:49:18;-3.00;99.90
12948;DHT22;6539;49.476;8.484;2022-12-18T00:54:16;-3.10;99.90
12948;DHT22;6539;49.476;8.484;2022-12-18T00:59:08;-3.30;99.90
12948;DHT22;6539;49.476;8.484;2022-12-18T01:01:34;-3.30;99.90
12948;DHT22;6539;49.476;8.484;2022-12-18T01:04:03;-3.20;99.90
12948;DHT22;6539;49.476;8.484;2022-12-18T01:06:31;-3.30;99.90
12948;DHT22;6539;49.476;8.484;2022-12-18T01:08:57;-3.50;99.90
12948;DHT22;6539;49.476;8.484;2022-12-18T01:11:23;-3.40;99.90
12948;DHT22;6539;49.476;8.484;2022-12-18T01:13:51;-3.30;99.90
12948;DHT22;6539;49.476;8.484;2022-12-18T01:18:46;-3.70;99.90
12948;DHT22;6539;49.476;8.484;2022-12-18T01:21:15;-3.40;99.90
12948;DHT22;6539;49.476;8.484;2022-12-18T01:26:17;-3.50;99.90
12948;DHT22;6539;49.476;8.484;2022-12-18T01:28:45;-3.60;99.90
12948;DHT22;6539;49.476;8.484;2022-12-18T01:31:12;-3.60;99.90
12948;DHT22;6539;49.476;8.484;2022-12-18T01:33:48;-3.50;99.90
12948;DHT22;6539;49.476;8.484;2022-12-18T01:38:49;-3.60;99.90
12948;DHT22;6539;49.476;8.484;2022-12-18T01:41:18;-3.70;99.90
12948;DHT22;6539;49.476;8.484;2022-12-18T01:43:49;-3.40;99.90
12948;DHT22;6539;49.476;8.484;2022-12-18T01:46:26;-3.50;99.90
12948;DHT22;6539;49.476;8.484;2022-12-18T01:48:58;-3.50;99.90
12948;DHT22;6539;49.476;8.484;2022-12-18T01:51:28;-3.50;99.90
12948;DHT22;6539;49.476;8.484;2022-12-18T01:53:56;-3.50;99.90
12948;DHT22;6539;49.476;8.484;2022-12-18T01:56:22;-3.40;99.90
12948;DHT22;6539;49.476;8.484;2022-12-18T01:59:04;-3.30;99.90
12948;DHT22;6539;49.476;8.484;2022-12-18T02:01:34;-3.60;99.90
12948;DHT22;6539;49.476;8.484;2022-12-18T02:04:25;-3.60;99.90
12948;DHT22;6539;49.476;8.484;2022-12-18T02:07:46;-3.50;99.90
12948;DHT22;6539;49.476;8.484;2022-12-18T02:10:20;-3.40;99.90
12948;DHT22;6539;49.476;8.484;2022-12-18T02:13:20;-3.30;99.90
12948;DHT22;6539;49.476;8.484;2022-12-18T02:18:59;-3.50;99.90
12948;DHT22;6539;49.476;8.484;2022-12-18T02:21:48;-3.40;99.90
12948;DHT22;6539;49.476;8.484;2022-12-18T02:27:26;-3.50;99.90
12948;DHT22;6539;49.476;8.484;2022-12-18T02:29:55;-3.40;99.90
12948;DHT22;6539;49.476;8.484;2022-12-18T02:32:29;-3.40;99.90
12948;DHT22;6539;49.476;8.484;2022-12-18T02:35:04;-3.40;99.90
12948;DHT22;6539;49.476;8.484;2022-12-18T02:37:37;-3.40;99.90
12948;DHT22;6539;49.476;8.484;2022-12-18T02:40:06;-3.50;99.90
12948;DHT22;6539;49.476;8.484;2022-12-18T02:42:33;-3.60;99.90
12948;DHT22;6539;49.476;8.484;2022-12-18T02:44:59;-3.80;99.90
12948;DHT22;6539;49.476;8.484;2022-12-18T02:47:30;-3.60;99.90
12948;DHT22;6539;49.476;8.484;2022-12-18T02:50:07;-3.80;99.90
12948;DHT22;6539;49.476;8.484;2022-12-18T02:58:55;-3.80;99.90
12948;DHT22;6539;49.476;8.484;2022-12-18T03:02:07;-3.90;99.90
12948;DHT22;6539;49.476;8.484;2022-12-18T03:05:13;-4.00;99.90
12948;DHT22;6539;49.476;8.484;2022-12-18T03:08:15;-3.80;99.90
12948;DHT22;6539;49.476;8.484;2022-12-18T03:10:51;-3.80;99.90
12948;DHT22;6539;49.476;8.484;2022-12-18T03:13:40;-3.70;99.90
12948;DHT22;6539;49.476;8.484;2022-12-18T03:16:20;-3.70;99.90
12948;DHT22;6539;49.476;8.484;2022-12-18T03:19:06;-3.70;99.90
12948;DHT22;6539;49.476;8.484;2022-12-18T03:21:49;-3.50;99.90
12948;DHT22;6539;49.476;8.484;2022-12-18T03:24:24;-3.70;99.90
12948;DHT22;6539;49.476;8.484;2022-12-18T03:26:58;-3.60;99.90
12948;DHT22;6539;49.476;8.484;2022-12-18T03:29:42;-3.60;99.90
12948;DHT22;6539;49.476;8.484;2022-12-18T03:32:29;-3.70;99.90
12948;DHT22;6539;49.476;8.484;2022-12-18T03:35:03;-3.40;99.90
12948;DHT22;6539;49.476;8.484;2022-12-18T03:39:57;-3.40;99.90
12948;DHT22;6539;49.476;8.484;2022-12-18T03:42:30;-3.70;99.90
12948;DHT22;6539;49.476;8.484;2022-12-18T03:45:35;-3.50;99.90
12948;DHT22;6539;49.476;8.484;2022-12-18T03:50:57;-3.60;99.90
12948;DHT22;6539;49.476;8.484;2022-12-18T03:53:41;-3.70;99.90
12948;DHT22;6539;49.476;8.484;2022-12-18T03:56:11;-3.60;99.90
12948;DHT22;6539;49.476;8.484;2022-12-18T03:58:40;-3.40;99.90
12948;DHT22;6539;49.476;8.484;2022-12-18T04:01:10;-3.80;99.90
12948;DHT22;6539;49.476;8.484;2022-12-18T04:03:39;-3.70;99.90
12948;DHT22;6539;49.476;8.484;2022-12-18T04:06:12;-3.70;99.90
12948;DHT22;6539;49.476;8.484;2022-12-18T04:08:42;-3.60;99.90
12948;DHT22;6539;49.476;8.484;2022-12-18T04:13:37;-3.70;99.90
12948;DHT22;6539;49.476;8.484;2022-12-18T04:16:04;-3.90;99.90
12948;DHT22;6539;49.476;8.484;2022-12-18T04:18:32;-4.10;99.90
12948;DHT22;6539;49.476;8.484;2022-12-18T04:23:28;-3.80;99.90
12948;DHT22;6539;49.476;8.484;2022-12-18T04:25:59;-3.50;99.90
12948;DHT22;6539;49.476;8.484;2022-12-18T04:30:56;-3.80;99.90
12948;DHT22;6539;49.476;8.484;2022-12-18T04:35:48;-3.80;99.90
12948;DHT22;6539;49.476;8.484;2022-12-18T04:38:16;-3.80;99.90
12948;DHT22;6539;49.476;8.484;2022-12-18T04:40:42;-3.90;99.90
12948;DHT22;6539;49.476;8.484;2022-12-18T04:43:11;-3.60;99.90
12948;DHT22;6539;49.476;8.484;2022-12-18T04:45:36;-3.90;99.90
12948;DHT22;6539;49.476;8.484;2022-12-18T04:48:03;-3.70;99.90
12948;DHT22;6539;49.476;8.484;2022-12-18T04:53:00;-4.00;99.90
12948;DHT22;6539;49.476;8.484;2022-12-18T04:55:26;-3.60;99.90
12948;DHT22;6539;49.476;8.484;2022-12-18T04:57:55;-3.90;99.90
12948;DHT22;6539;49.476;8.484;2022-12-18T05:02:50;-3.90;99.90
12948;DHT22;6539;49.476;8.484;2022-12-18T05:05:23;-3.70;99.90
12948;DHT22;6539;49.476;8.484;2022-12-18T05:07:49;-3.70;99.90
12948;DHT22;6539;49.476;8.484;2022-12-18T05:12:40;-3.60;99.90
12948;DHT22;6539;49.476;8.484;2022-12-18T05:15:24;-3.50;99.90
12948;DHT22;6539;49.476;8.484;2022-12-18T05:17:54;-3.50;99.90
12948;DHT22;6539;49.476;8.484;2022-12-18T05:25:12;-3.50;99.90
12948;DHT22;6539;49.476;8.484;2022-12-18T05:27:40;-3.50;99.90
12948;DHT22;6539;49.476;8.484;2022-12-18T05:30:07;-3.90;99.90
12948;DHT22;6539;49.476;8.484;2022-12-18T05:35:02;-3.70;99.90
12948;DHT22;6539;49.476;8.484;2022-12-18T05:40:04;-3.80;99.90
12948;DHT22;6539;49.476;8.484;2022-12-18T05:42:34;-3.70;99.90
12948;DHT22;6539;49.476;8.484;2022-12-18T05:45:05;-3.80;99.90
12948;DHT22;6539;49.476;8.484;2022-12-18T05:50:03;-4.00;99.90
12948;DHT22;6539;49.476;8.484;2022-12-18T05:52:31;-3.80;99.90
12948;DHT22;6539;49.476;8.484;2022-12-18T05:54:59;-3.80;99.90
12948;DHT22;6539;49.476;8.484;2022-12-18T05:57:25;-3.80;99.90
12948;DHT22;6539;49.476;8.484;2022-12-18T06:02:20;-4.20;99.90
12948;DHT22;6539;49.476;8.484;2022-12-18T06:09:40;-4.00;99.90
12948;DHT22;6539;49.476;8.484;2022-12-18T06:14:34;-3.80;99.90
12948;DHT22;6539;49.476;8.484;2022-12-18T06:17:07;-3.90;99.90
12948;DHT22;6539;49.476;8.484;2022-12-18T06:19:35;-3.70;99.90
12948;DHT22;6539;49.476;8.484;2022-12-18T06:26:58;-3.60;99.90
12948;DHT22;6539;49.476;8.484;2022-12-18T06:34:18;-3.70;99.90
12948;DHT22;6539;49.476;8.484;2022-12-18T06:36:44;-3.70;99.90
12948;DHT22;6539;49.476;8.484;2022-12-18T06:39:10;-3.80;99.90
12948;DHT22;6539;49.476;8.484;2022-12-18T06:41:38;-3.80;99.90
12948;DHT22;6539;49.476;8.484;2022-12-18T06:44:06;-3.70;99.90
12948;DHT22;6539;49.476;8.484;2022-12-18T06:46:32;-3.70;99.90
12948;DHT22;6539;49.476;8.484;2022-12-18T06:48:57;-3.80;99.90
12948;DHT22;6539;49.476;8.484;2022-12-18T06:51:26;-3.70;99.90
12948;DHT22;6539;49.476;8.484;2022-12-18T06:53:57;-3.90;99.90
12948;DHT22;6539;49.476;8.484;2022-12-18T06:56:25;-3.70;99.90
12948;DHT22;6539;49.476;8.484;2022-12-18T06:58:50;-4.00;99.90
12948;DHT22;6539;49.476;8.484;2022-12-18T07:01:19;-3.60;99.90
12948;DHT22;6539;49.476;8.484;2022-12-18T07:03:45;-3.90;99.90
12948;DHT22;6539;49.476;8.484;2022-12-18T07:06:19;-3.80;99.90
12948;DHT22;6539;49.476;8.484;2022-12-18T07:08:48;-3.80;99.90
12948;DHT22;6539;49.476;8.484;2022-12-18T07:11:16;-3.80;99.90
12948;DHT22;6539;49.476;8.484;2022-12-18T07:13:45;-3.60;99.90
12948;DHT22;6539;49.476;8.484;2022-12-18T07:16:17;-4.20;99.90
12948;DHT22;6539;49.476;8.484;2022-12-18T07:18:45;-4.10;99.90
12948;DHT22;6539;49.476;8.484;2022-12-18T07:21:15;-3.90;99.90
12948;DHT22;6539;49.476;8.484;2022-12-18T07:26:17;-3.90;99.90
12948;DHT22;6539;49.476;8.484;2022-12-18T07:28:45;-4.20;99.90
12948;DHT22;6539;49.476;8.484;2022-12-18T07:31:19;-4.00;99.90
12948;DHT22;6539;49.476;8.484;2022-12-18T07:33:46;-4.00;99.90
12948;DHT22;6539;49.476;8.484;2022-12-18T07:36:12;-4.00;99.90
12948;DHT22;6539;49.476;8.484;2022-12-18T07:38:39;-4.00;99.90
12948;DHT22;6539;49.476;8.484;2022-12-18T07:41:11;-4.00;99.90
12948;DHT22;6539;49.476;8.484;2022-12-18T07:43:39;-3.60;99.90
12948;DHT22;6539;49.476;8.484;2022-12-18T07:46:06;-3.70;99.90
12948;DHT22;6539;49.476;8.484;2022-12-18T07:48:34;-3.80;99.90
12948;DHT22;6539;49.476;8.484;2022-12-18T07:51:06;-3.60;99.90
12948;DHT22;6539;49.476;8.484;2022-12-18T07:53:33;-3.60;99.90
12948;DHT22;6539;49.476;8.484;2022-12-18T07:56:06;-3.80;99.90
12948;DHT22;6539;49.476;8.484;2022-12-18T07:58:36;-3.80;99.90
12948;DHT22;6539;49.476;8.484;2022-12-18T08:01:07;-3.50;99.90
12948;DHT22;6539;49.476;8.484;2022-12-18T08:03:35;-3.80;99.90
12948;DHT22;6539;49.476;8.484;2022-12-18T08:06:03;-4.00;99.90
12948;DHT22;6539;49.476;8.484;2022-12-18T08:10:57;-3.80;99.90
12948;DHT22;6539;49.476;8.484;2022-12-18T08:13:23;-3.90;99.90
12948;DHT22;6539;49.476;8.484;2022-12-18T08:16:16;-3.90;99.90
12948;DHT22;6539;49.476;8.484;2022-12-18T08:18:42;-4.00;99.90
12948;DHT22;6539;49.476;8.484;2022-12-18T08:21:12;-3.80;99.90
12948;DHT22;6539;49.476;8.484;2022-12-18T08:26:13;-3.90;99.90
12948;DHT22;6539;49.476;8.484;2022-12-18T08:28:40;-3.70;99.90
12948;DHT22;6539;49.476;8.484;2022-12-18T08:31:09;-3.60;99.90
12948;DHT22;6539;49.476;8.484;2022-12-18T08:33:35;-3.70;99.90
12948;DHT22;6539;49.476;8.484;2022-12-18T08:38:29;-3.60;99.90
12948;DHT22;6539;49.476;8.484;2022-12-18T08:41:08;-3.70;99.90
12948;DHT22;6539;49.476;8.484;2022-12-18T08:43:38;-4.00;99.90
12948;DHT22;6539;49.476;8.484;2022-12-18T08:46:24;-3.70;99.90
12948;DHT22;6539;49.476;8.484;2022-12-18T08:48:53;-3.80;99.90
12948;DHT22;6539;49.476;8.484;2022-12-18T08:51:20;-3.60;99.90
12948;DHT22;6539;49.476;8.484;2022-12-18T08:53:46;-3.50;99.90
12948;DHT22;6539;49.476;8.484;2022-12-18T08:56:13;-3.40;99.90
12948;DHT22;6539;49.476;8.484;2022-12-18T08:58:42;-3.30;99.90
12948;DHT22;6539;49.476;8.484;2022-12-18T09:01:10;-3.30;99.90
12948;DHT22;6539;49.476;8.484;2022-12-18T09:03:38;-3.10;99.90
12948;DHT22;6539;49.476;8.484;2022-12-18T09:06:12;-3.50;99.90
12948;DHT22;6539;49.476;8.484;2022-12-18T09:11:26;-3.10;99.90
12948;DHT22;6539;49.476;8.484;2022-12-18T09:13:56;-3.30;99.90
12948;DHT22;6539;49.476;8.484;2022-12-18T09:16:24;-2.90;99.90
12948;DHT22;6539;49.476;8.484;2022-12-18T09:18:51;-2.90;99.90
12948;DHT22;6539;49.476;8.484;2022-12-18T09:21:20;-3.00;99.90
12948;DHT22;6539;49.476;8.484;2022-12-18T09:23:50;-2.80;99.90
12948;DHT22;6539;49.476;8.484;2022-12-18T09:26:17;-2.50;99.90
12948;DHT22;6539;49.476;8.484;2022-12-18T09:28:43;-2.50;99.90
12948;DHT22;6539;49.476;8.484;2022-12-18T09:31:11;-1.90;99.90
12948;DHT22;6539;49.476;8.484;2022-12-18T09:33:38;-1.70;99.90
12948;DHT22;6539;49.476;8.484;2022-12-18T09:36:05;-1.30;99.90
12948;DHT22;6539;49.476;8.484;2022-12-18T09:38:36;-1.00;99.90
12948;DHT22;6539;49.476;8.484;2022-12-18T09:43:54;0.00;99.90
12948;DHT22;6539;49.476;8.484;2022-12-18T09:46:28;0.30;99.90
12948;DHT22;6539;49.476;8.484;2022-12-18T09:49:00;0.70;99.90
12948;DHT22;6539;49.476;8.484;2022-12-18T09:54:41;1.40;99.90
12948;DHT22;6539;49.476;8.484;2022-12-18T09:57:15;1.60;99.90
12948;DHT22;6539;49.476;8.484;2022-12-18T09:59:48;1.60;99.90
12948;DHT22;6539;49.476;8.484;2022-12-18T10:02:23;2.20;99.90
12948;DHT22;6539;49.476;8.484;2022-12-18T10:05:07;1.80;99.90
12948;DHT22;6539;49.476;8.484;2022-12-18T10:10:37;2.30;99.90
12948;DHT22;6539;49.476;8.484;2022-12-18T10:13:39;2.20;99.90
12948;DHT22;6539;49.476;8.484;2022-12-18T10:16:22;2.40;99.90
12948;DHT22;6539;49.476;8.484;2022-12-18T10:30:14;2.10;99.90
12948;DHT22;6539;49.476;8.484;2022-12-18T10:32:43;2.00;99.90
12948;DHT22;6539;49.476;8.484;2022-12-18T10:35:26;2.10;99.90
12948;DHT22;6539;49.476;8.484;2022-12-18T10:38:22;1.90;99.90
12948;DHT22;6539;49.476;8.484;2022-12-18T10:40:55;2.00;99.90
12948;DHT22;6539;49.476;8.484;2022-12-18T10:43:31;1.60;99.90
12948;DHT22;6539;49.476;8.484;2022-12-18T10:54:18;1.40;99.90
12948;DHT22;6539;49.476;8.484;2022-12-18T10:56:48;1.80;99.90
12948;DHT22;6539;49.476;8.484;2022-12-18T10:59:18;1.90;99.90
12948;DHT22;6539;49.476;8.484;2022-12-18T11:01:56;1.80;99.90
12948;DHT22;6539;49.476;8.484;2022-12-18T11:04:26;1.80;99.90
12948;DHT22;6539;49.476;8.484;2022-12-18T11:06:58;2.10;99.90
12948;DHT22;6539;49.476;8.484;2022-12-18T11:09:33;2.30;99.90
12948;DHT22;6539;49.476;8.484;2022-12-18T11:17:21;1.80;99.90
12948;DHT22;6539;49.476;8.484;2022-12-18T11:20:20;2.10;99.90
12948;DHT22;6539;49.476;8.484;2022-12-18T11:23:11;2.10;99.90
12948;DHT22;6539;49.476;8.484;2022-12-18T11:25:58;1.90;99.90
12948;DHT22;6539;49.476;8.484;2022-12-18T11:28:38;2.10;99.90
12948;DHT22;6539;49.476;8.484;2022-12-18T11:31:26;1.70;99.90
12948;DHT22;6539;49.476;8.484;2022-12-18T11:33:58;1.80;99.90
12948;DHT22;6539;49.476;8.484;2022-12-18T11:36:34;1.70;99.90
12948;DHT22;6539;49.476;8.484;2022-12-18T11:39:15;1.60;99.90
12948;DHT22;6539;49.476;8.484;2022-12-18T11:42:02;1.60;99.90
12948;DHT22;6539;49.476;8.484;2022-12-18T11:51:09;1.60;99.90
12948;DHT22;6539;49.476;8.484;2022-12-18T11:53:14;1.70;99.90
12948;DHT22;6539;49.476;8.484;2022-12-18T11:56:12;1.30;99.90
12948;DHT22;6539;49.476;8.484;2022-12-18T11:59:20;1.30;99.90
12948;DHT22;6539;49.476;8.484;2022-12-18T12:02:28;1.30;99.90
12948;DHT22;6539;49.476;8.484;2022-12-18T12:08:15;0.80;99.90
12948;DHT22;6539;49.476;8.484;2022-12-18T12:16:37;1.00;99.90
12948;DHT22;6539;49.476;8.484;2022-12-18T12:19:37;0.50;99.90
12948;DHT22;6539;49.476;8.484;2022-12-18T12:25:40;0.90;99.90
12948;DHT22;6539;49.476;8.484;2022-12-18T12:31:14;1.10;99.90
12948;DHT22;6539;49.476;8.484;2022-12-18T12:39:40;1.10;99.90
12948;DHT22;6539;49.476;8.484;2022-12-18T12:42:40;1.40;99.90
12948;DHT22;6539;49.476;8.484;2022-12-18T12:45:36;1.20;99.90
12948;DHT22;6539;49.476;8.484;2022-12-18T12:48:20;1.40;99.90
12948;DHT22;6539;49.476;8.484;2022-12-18T12:50:47;1.30;99.90
12948;DHT22;6539;49.476;8.484;2022-12-18T12:53:26;1.10;99.90
12948;DHT22;6539;49.476;8.484;2022-12-18T12:55:58;0.80;99.90
12948;DHT22;6539;49.476;8.484;2022-12-18T12:58:46;1.20;99.90
12948;DHT22;6539;49.476;8.484;2022-12-18T13:01:32;0.80;99.90
12948;DHT22;6539;49.476;8.484;2022-12-18T13:09:23;1.00;99.90
12948;DHT22;6539;49.476;8.484;2022-12-18T13:11:51;1.00;99.90
12948;DHT22;6539;49.476;8.484;2022-12-18T13:14:38;0.80;99.90
12948;DHT22;6539;49.476;8.484;2022-12-18T13:20:24;0.70;99.90
12948;DHT22;6539;49.476;8.484;2022-12-18T13:22:59;0.40;99.90
12948;DHT22;6539;49.476;8.484;2022-12-18T13:25:35;0.70;99.90
12948;DHT22;6539;49.476;8.484;2022-12-18T13:28:15;0.60;99.90
12948;DHT22;6539;49.476;8.484;2022-12-18T13:30:44;0.80;99.90
12948;DHT22;6539;49.476;8.484;2022-12-18T13:41:02;0.30;99.90
12948;DHT22;6539;49.476;8.484;2022-12-18T13:43:48;0.50;99.90
12948;DHT22;6539;49.476;8.484;2022-12-18T13:51:31;0.40;99.90
12948;DHT22;6539;49.476;8.484;2022-12-18T13:54:06;0.50;99.90
12948;DHT22;6539;49.476;8.484;2022-12-18T13:56:45;0.40;99.90
12948;DHT22;6539;49.476;8.484;2022-12-18T14:01:57;0.40;99.90
12948;DHT22;6539;49.476;8.484;2022-12-18T14:04:34;0.50;99.90
12948;DHT22;6539;49.476;8.484;2022-12-18T14:07:14;0.50;99.90
12948;DHT22;6539;49.476;8.484;2022-12-18T14:09:47;0.70;99.90
12948;DHT22;6539;49.476;8.484;2022-12-18T14:12:33;0.80;99.90
12948;DHT22;6539;49.476;8.484;2022-12-18T14:17:59;0.50;99.90
12948;DHT22;6539;49.476;8.484;2022-12-18T14:20:30;0.60;99.90
12948;DHT22;6539;49.476;8.484;2022-12-18T14:23:00;0.70;99.90
12948;DHT22;6539;49.476;8.484;2022-12-18T14:25:30;0.70;99.90
12948;DHT22;6539;49.476;8.484;2022-12-18T14:30:38;0.70;99.90
12948;DHT22;6539;49.476;8.484;2022-12-18T14:35:57;0.70;99.90
12948;DHT22;6539;49.476;8.484;2022-12-18T14:38:34;0.70;99.90
12948;DHT22;6539;49.476;8.484;2022-12-18T14:43:46;0.70;99.90
12948;DHT22;6539;49.476;8.484;2022-12-18T14:48:54;0.80;99.90
12948;DHT22;6539;49.476;8.484;2022-12-18T14:51:26;0.60;99.90
12948;DHT22;6539;49.476;8.484;2022-12-18T14:54:37;0.90;99.90
12948;DHT22;6539;49.476;8.484;2022-12-18T15:00:15;0.70;99.90
12948;DHT22;6539;49.476;8.484;2022-12-18T15:02:54;0.90;99.90
12948;DHT22;6539;49.476;8.484;2022-12-18T15:05:30;0.60;99.90
12948;DHT22;6539;49.476;8.484;2022-12-18T15:08:00;0.50;99.90
12948;DHT22;6539;49.476;8.484;2022-12-18T15:10:32;1.00;99.90
12948;DHT22;6539;49.476;8.484;2022-12-18T15:13:22;0.80;99.90
12948;DHT22;6539;49.476;8.484;2022-12-18T15:15:52;0.70;99.90
12948;DHT22;6539;49.476;8.484;2022-12-18T15:18:28;0.50;99.90
12948;DHT22;6539;49.476;8.484;2022-12-18T15:21:10;0.00;99.90
12948;DHT22;6539;49.476;8.484;2022-12-18T15:26:18;0.50;99.90
12948;DHT22;6539;49.476;8.484;2022-12-18T15:28:53;0.80;99.90
12948;DHT22;6539;49.476;8.484;2022-12-18T15:31:34;0.40;99.90
12948;DHT22;6539;49.476;8.484;2022-12-18T15:36:46;0.50;99.90
12948;DHT22;6539;49.476;8.484;2022-12-18T15:39:12;0.50;99.90
12948;DHT22;6539;49.476;8.484;2022-12-18T15:41:41;0.50;99.90
12948;DHT22;6539;49.476;8.484;2022-12-18T15:44:27;0.60;99.90
12948;DHT22;6539;49.476;8.484;2022-12-18T15:46:55;0.30;99.90
12948;DHT22;6539;49.476;8.484;2022-12-18T15:51:52;-1.40;99.90
12948;DHT22;6539;49.476;8.484;2022-12-18T15:54:20;0.50;99.90
12948;DHT22;6539;49.476;8.484;2022-12-18T15:57:09;0.50;99.90
12948;DHT22;6539;49.476;8.484;2022-12-18T15:59:55;0.30;99.90
12948;DHT22;6539;49.476;8.484;2022-12-18T16:02:25;0.30;99.90
12948;DHT22;6539;49.476;8.484;2022-12-18T16:04:52;0.30;99.90
12948;DHT22;6539;49.476;8.484;2022-12-18T16:07:19;0.20;99.90
12948;DHT22;6539;49.476;8.484;2022-12-18T16:12:22;0.30;99.90
12948;DHT22;6539;49.476;8.484;2022-12-18T16:17:15;0.40;99.90
12948;DHT22;6539;49.476;8.484;2022-12-18T16:19:41;0.30;99.90
12948;DHT22;6539;49.476;8.484;2022-12-18T16:22:20;0.30;99.90
12948;DHT22;6539;49.476;8.484;2022-12-18T16:24:52;0.20;99.90
12948;DHT22;6539;49.476;8.484;2022-12-18T16:27:21;0.60;99.90
12948;DHT22;6539;49.476;8.484;2022-12-18T16:29:48;0.30;99.90
12948;DHT22;6539;49.476;8.484;2022-12-18T16:32:19;0.30;99.90
12948;DHT22;6539;49.476;8.484;2022-12-18T16:34:47;0.60;99.90
12948;DHT22;6539;49.476;8.484;2022-12-18T16:37:14;0.30;99.90
12948;DHT22;6539;49.476;8.484;2022-12-18T16:39:45;0.50;99.90
12948;DHT22;6539;49.476;8.484;2022-12-18T16:42:16;0.00;99.90
12948;DHT22;6539;49.476;8.484;2022-12-18T16:44:49;0.30;99.90
12948;DHT22;6539;49.476;8.484;2022-12-18T16:47:17;0.30;99.90
12948;DHT22;6539;49.476;8.484;2022-12-18T16:54:43;0.40;99.90
12948;DHT22;6539;49.476;8.484;2022-12-18T16:57:14;0.30;99.90
12948;DHT22;6539;49.476;8.484;2022-12-18T16:59:45;0.30;99.90
12948;DHT22;6539;49.476;8.484;2022-12-18T17:02:19;0.20;99.90
12948;DHT22;6539;49.476;8.484;2022-12-18T17:04:55;0.30;99.90
12948;DHT22;6539;49.476;8.484;2022-12-18T17:07:25;0.30;99.90
12948;DHT22;6539;49.476;8.484;2022-12-18T17:09:52;0.10;99.90
12948;DHT22;6539;49.476;8.484;2022-12-18T17:12:21;0.20;99.90
12948;DHT22;6539;49.476;8.484;2022-12-18T17:14:51;0.10;99.90
12948;DHT22;6539;49.476;8.484;2022-12-18T17:17:17;0.20;99.90
12948;DHT22;6539;49.476;8.484;2022-12-18T17:19:43;0.30;99.90
12948;DHT22;6539;49.476;8.484;2022-12-18T17:22:09;0.10;99.90
12948;DHT22;6539;49.476;8.484;2022-12-18T17:24:34;0.20;99.90
12948;DHT22;6539;49.476;8.484;2022-12-18T17:27:00;0.30;99.90
12948;DHT22;6539;49.476;8.484;2022-12-18T17:29:27;0.20;99.90
12948;DHT22;6539;49.476;8.484;2022-12-18T17:31:55;0.50;99.90
12948;DHT22;6539;49.476;8.484;2022-12-18T17:36:47;0.20;99.90
12948;DHT22;6539;49.476;8.484;2022-12-18T17:39:17;0.40;99.90
12948;DHT22;6539;49.476;8.484;2022-12-18T17:41:47;0.40;99.90
12948;DHT22;6539;49.476;8.484;2022-12-18T17:44:14;0.30;99.90
12948;DHT22;6539;49.476;8.484;2022-12-18T17:46:40;0.00;99.90
12948;DHT22;6539;49.476;8.484;2022-12-18T17:49:09;0.20;99.90
12948;DHT22;6539;49.476;8.484;2022-12-18T17:51:35;0.00;99.90
12948;DHT22;6539;49.476;8.484;2022-12-18T17:59:01;0.00;99.90
12948;DHT22;6539;49.476;8.484;2022-12-18T18:03:53;0.30;99.90
12948;DHT22;6539;49.476;8.484;2022-12-18T18:06:26;0.30;99.90
12948;DHT22;6539;49.476;8.484;2022-12-18T18:08:52;0.10;99.90
12948;DHT22;6539;49.476;8.484;2022-12-18T18:11:20;-0.10;99.90
12948;DHT22;6539;49.476;8.484;2022-12-18T18:14:15;0.10;99.90
12948;DHT22;6539;49.476;8.484;2022-12-18T18:16:49;0.10;99.90
12948;DHT22;6539;49.476;8.484;2022-12-18T18:19:21;0.20;99.90
12948;DHT22;6539;49.476;8.484;2022-12-18T18:21:50;0.30;99.90
12948;DHT22;6539;49.476;8.484;2022-12-18T18:24:22;0.10;99.90
12948;DHT22;6539;49.476;8.484;2022-12-18T18:26:48;0.20;99.90
12948;DHT22;6539;49.476;8.484;2022-12-18T18:29:17;0.30;99.90
12948;DHT22;6539;49.476;8.484;2022-12-18T18:31:45;0.10;99.90
12948;DHT22;6539;49.476;8.484;2022-12-18T18:34:19;0.40;99.90
12948;DHT22;6539;49.476;8.484;2022-12-18T18:36:52;0.20;99.90
12948;DHT22;6539;49.476;8.484;2022-12-18T18:41:47;0.70;99.90
12948;DHT22;6539;49.476;8.484;2022-12-18T18:44:17;0.60;99.90
12948;DHT22;6539;49.476;8.484;2022-12-18T18:46:49;0.80;99.90
12948;DHT22;6539;49.476;8.484;2022-12-18T18:54:10;0.40;99.90
12948;DHT22;6539;49.476;8.484;2022-12-18T18:56:38;0.50;99.90
12948;DHT22;6539;49.476;8.484;2022-12-18T18:59:06;0.40;99.90
12948;DHT22;6539;49.476;8.484;2022-12-18T19:01:32;0.50;99.90
12948;DHT22;6539;49.476;8.484;2022-12-18T19:04:00;0.30;99.90
12948;DHT22;6539;49.476;8.484;2022-12-18T19:06:27;0.30;99.90
12948;DHT22;6539;49.476;8.484;2022-12-18T19:09:00;-0.10;99.90
12948;DHT22;6539;49.476;8.484;2022-12-18T19:11:29;0.40;99.90
12948;DHT22;6539;49.476;8.484;2022-12-18T19:14:14;0.20;99.90
12948;DHT22;6539;49.476;8.484;2022-12-18T19:16:41;0.50;99.90
12948;DHT22;6539;49.476;8.484;2022-12-18T19:19:09;0.30;99.90
12948;DHT22;6539;49.476;8.484;2022-12-18T19:24:05;0.10;99.90
12948;DHT22;6539;49.476;8.484;2022-12-18T19:26:31;0.00;99.90
12948;DHT22;6539;49.476;8.484;2022-12-18T19:29:07;0.10;99.90
12948;DHT22;6539;49.476;8.484;2022-12-18T19:31:35;0.00;99.90
12948;DHT22;6539;49.476;8.484;2022-12-18T19:34:05;-0.10;99.90
12948;DHT22;6539;49.476;8.484;2022-12-18T19:36:35;0.20;99.90
12948;DHT22;6539;49.476;8.484;2022-12-18T19:39:11;0.10;99.90
12948;DHT22;6539;49.476;8.484;2022-12-18T19:41:39;-0.10;99.90
12948;DHT22;6539;49.476;8.484;2022-12-18T19:44:08;0.00;99.90
12948;DHT22;6539;49.476;8.484;2022-12-18T19:46:38;0.10;99.90
12948;DHT22;6539;49.476;8.484;2022-12-18T19:49:06;0.00;99.90
12948;DHT22;6539;49.476;8.484;2022-12-18T19:54:01;0.00;99.90
12948;DHT22;6539;49.476;8.484;2022-12-18T19:56:31;0.20;99.90
12948;DHT22;6539;49.476;8.484;2022-12-18T19:59:03;0.10;99.90
12948;DHT22;6539;49.476;8.484;2022-12-18T20:01:32;0.00;99.90
12948;DHT22;6539;49.476;8.484;2022-12-18T20:03:58;0.00;99.90
12948;DHT22;6539;49.476;8.484;2022-12-18T20:09:04;0.30;99.90
12948;DHT22;6539;49.476;8.484;2022-12-18T20:11:34;0.40;99.90
12948;DHT22;6539;49.476;8.484;2022-12-18T20:16:31;0.20;99.90
12948;DHT22;6539;49.476;8.484;2022-12-18T20:18:57;0.30;99.90
12948;DHT22;6539;49.476;8.484;2022-12-18T20:21:24;0.20;99.90
12948;DHT22;6539;49.476;8.484;2022-12-18T20:23:50;0.20;99.90
12948;DHT22;6539;49.476;8.484;2022-12-18T20:26:16;0.50;99.90
12948;DHT22;6539;49.476;8.484;2022-12-18T20:28:47;0.50;99.90
12948;DHT22;6539;49.476;8.484;2022-12-18T20:31:17;0.60;99.90
12948;DHT22;6539;49.476;8.484;2022-12-18T20:33:45;0.40;99.90